• Join FlightAware (Why Join?)
  • Login
  • US Flag 
02:05AM EDT


 

Airport Tracker/Info


-or-


 

Live Flight TrackerFlight Track Log ✈ EJA922 ✈ 23-Aug-2013 ✈ KWVL - KTEB

Flight Track Log - Related Links

Times and Time Zones

All times are in EDT time to prevent confusion due to time zone crossing. See the EJA922 flight status page for this flight to view local times or setup timezone preferences in your user account.

Time Position Orientation Groundspeed Altitude Reporting Facility
EDT Latitude Longitude Course Direction KTS MPH feet Rate Location/Type
04:28PM 44.5222 -69.7758 229° Southwest 246 283 6,700  Level Boston Center
04:29PM 44.4658 -69.8569 226° Southwest 271 312 9,800 2,700 Climbing Boston Center
04:30PM 44.4203 -69.9694 240° Southwest 317 365 12,200 2,400 Climbing Boston Center
04:31PM 44.3728 -70.0875 241° Southwest 344 396 14,700 2,700 Climbing Boston Center
04:32PM 44.3208 -70.2086 239° Southwest 363 418 17,700 2,580 Climbing Boston Center
04:33PM 44.0734 -70.3459 229° Southwest  Level FlightAware Approximate
04:33PM 44.2711 -70.3294 240° Southwest 363 418 19,800  Level Boston Center
04:34PM 44.2192 -70.4586 241° Southwest 363 418 21,700 1,080 Climbing Boston Center
04:35PM 44.1631 -70.5908 239° Southwest 386 444 22,000 120 Climbing Boston Center
04:36PM 44.1008 -70.7372 239° Southwest 417 480 22,000  Level Boston Center
04:37PM 44.0425 -70.8833 241° Southwest 434 499 22,000  Level Boston Center
04:38PM 43.9797 -71.0292 239° Southwest 440 506 22,000  Level Boston Center
04:39PM 43.9169 -71.1747 239° Southwest 445 512 22,000  Level Boston Center
04:40PM 43.8619 -71.3028 239° Southwest 450 518 22,000  Level Boston Center
04:41PM 43.7986 -71.4506 239° Southwest 450 518 22,000  Level Boston Center
04:42PM 43.7311 -71.6125 240° Southwest 450 518 22,000  Level Boston Center
04:43PM 43.6675 -71.7600 239° Southwest 450 518 22,000  Level Boston Center
04:44PM 43.6100 -71.8925 239° Southwest 456 525 22,000  Level Boston Center
04:45PM 43.5458 -72.0392 239° Southwest 456 525 22,000  Level Boston Center
04:46PM 43.4797 -72.1856 238° Southwest 451 519 22,000  Level Boston Center
04:47PM 43.4175 -72.3314 240° Southwest 451 519 22,000  Level Boston Center
04:48PM 43.3508 -72.4772 238° Southwest 451 519 22,000  Level Boston Center
04:49PM 43.2861 -72.6256 239° Southwest 451 519 22,000  Level Boston Center
04:50PM 43.2211 -72.7733 239° Southwest 451 519 22,000  Level Boston Center
04:51PM 43.1539 -72.9183 238° Southwest 451 519 22,000  Level Boston Center
04:52PM 43.0886 -73.0656 239° Southwest 451 519 22,000  Level Boston Center
04:53PM 43.0022 -73.1925 227° Southwest 451 519 22,000 -180 Level Boston Center
04:54PM 42.9097 -73.3131 224° Southwest 456 525 21,700 -900 Descending Boston Center
04:55PM 42.8192 -73.4308 224° Southwest 456 525 20,300 -1,620 Descending Boston Center
04:56PM 42.7200 -73.5536 222° Southwest 450 518 18,500 -1,620 Descending Boston Center
04:57PM 42.6314 -73.6706 224° Southwest 444 511 17,200 -780 Descending Boston Center
04:58PM 42.5531 -73.7675 222° Southwest 444 511 17,000 -120 Descending Boston Center
04:59PM 42.4578 -73.8922 224° Southwest 439 505 17,000 -300 Level Boston Center
05:00PM 42.3794 -73.9917 223° Southwest 432 497 16,400 -1,080 Descending Boston Center
05:01PM 42.2881 -74.1100 224° Southwest 427 491 14,900 -1,200 Descending Boston Center
05:02PM 42.2075 -74.2003 220° Southwest 427 491 14,100 -420 Descending Boston Center
05:03PM 42.0936 -74.2867 209° Southwest 427 491 14,100 -300 Level Boston Center
05:04PM 41.9986 -74.3536 208° Southwest 427 491 13,600 -1,140 Descending Boston Center
05:05PM 41.8911 -74.4342 209° Southwest 416 479 11,900 -1,500 Descending Boston Center
05:06PM 41.8128 -74.4903 208° Southwest 378 435 10,600 -1,320 Descending Boston Center
05:07PM 41.7267 -74.5319 200° South 321 369 9,300 -1,200 Descending Boston Center
05:08PM 41.6556 -74.5433 187° South 291 335 8,300 -660 Descending Boston Center
05:09PM 41.5678 -74.5600 188° South 291 335 8,000 -180 Descending Boston Center
05:10PM 41.4986 -74.5742 189° South 291 335 8,000 -300 Level Boston Center
05:11PM 41.4128 -74.5908 188° South 291 335 7,500 -300 Descending Boston Center
05:13PM 41.2167 -74.6333 189° South 291 335 7,100 -480 Descending New York TRACON
05:14PM 41.1333 -74.6167 171° South 287 330 5,900 -1,320 Descending New York TRACON
05:15PM 41.0667 -74.6000 169° South 281 323 4,500 -1,200 Descending New York TRACON
05:16PM 40.9833 -74.5667 163° South 268 308 3,500 -720 Descending New York TRACON
05:17PM 40.9167 -74.5500 169° South 273 314 3,100 -240 Descending New York TRACON
05:18PM 40.8500 -74.5333 169° South 283 326 3,100  Level New York TRACON
05:19PM 40.8000 -74.4500 128° Southeast 259 298 3,100  Level New York TRACON
05:20PM 40.7667 -74.3667 118° Southeast 267 307 3,100 -420 Level New York TRACON
05:21PM 40.7333 -74.3000 123° Southeast 223 257 2,300 -540 Descending New York TRACON
05:22PM 40.7333 -74.2333 90° East 201 231 2,100 -420 Descending New York TRACON
05:23PM 40.7833 -74.1833 37° Northeast 195 224 1,500 -360 Descending New York TRACON
05:24PM 40.8000 -74.1333 66° East 150 173 1,400 -360 Descending New York TRACON
05:25PM 40.8333 -74.1000 37° Northeast 126 145 800 -600 Descending New York TRACON
05:27PM 40.8501 -74.0608 57° Northeast  Level Estimated
05:34PM 40.8501 -74.0608 57° Northeast  Level Estimated
05:35PM 40.8501 -74.0608 57° Northeast  Level Estimated